sensor_id;sensor_type;location;lat;lon;timestamp;P1;durP1;ratioP1;P2;durP2;ratioP2
18142;SDS011;9197;50.930;3.140;2023-12-20T00:00:21;19.43;;;5.93;;
18142;SDS011;9197;50.930;3.140;2023-12-20T00:02:48;10.17;;;4.43;;
18142;SDS011;9197;50.930;3.140;2023-12-20T00:05:17;9.37;;;4.80;;
18142;SDS011;9197;50.930;3.140;2023-12-20T00:07:44;14.03;;;4.67;;
18142;SDS011;9197;50.930;3.140;2023-12-20T00:10:11;16.10;;;4.17;;
18142;SDS011;9197;50.930;3.140;2023-12-20T00:12:38;13.07;;;4.53;;
18142;SDS011;9197;50.930;3.140;2023-12-20T00:15:06;14.47;;;5.00;;
18142;SDS011;9197;50.930;3.140;2023-12-20T00:17:34;15.40;;;4.87;;
18142;SDS011;9197;50.930;3.140;2023-12-20T00:20:01;19.10;;;5.07;;
18142;SDS011;9197;50.930;3.140;2023-12-20T00:22:29;16.87;;;4.60;;
18142;SDS011;9197;50.930;3.140;2023-12-20T00:24:56;9.13;;;4.37;;
18142;SDS011;9197;50.930;3.140;2023-12-20T00:27:24;8.00;;;3.60;;
18142;SDS011;9197;50.930;3.140;2023-12-20T00:29:51;11.47;;;3.93;;
18142;SDS011;9197;50.930;3.140;2023-12-20T00:32:18;17.60;;;4.83;;
18142;SDS011;9197;50.930;3.140;2023-12-20T00:34:45;9.30;;;3.93;;
18142;SDS011;9197;50.930;3.140;2023-12-20T00:37:12;13.80;;;3.67;;
18142;SDS011;9197;50.930;3.140;2023-12-20T00:39:41;12.97;;;4.33;;
18142;SDS011;9197;50.930;3.140;2023-12-20T00:42:09;11.73;;;3.80;;
18142;SDS011;9197;50.930;3.140;2023-12-20T00:44:36;8.67;;;3.33;;
18142;SDS011;9197;50.930;3.140;2023-12-20T00:47:03;9.80;;;3.37;;
18142;SDS011;9197;50.930;3.140;2023-12-20T00:49:30;12.40;;;3.07;;
18142;SDS011;9197;50.930;3.140;2023-12-20T00:51:57;5.67;;;2.80;;
18142;SDS011;9197;50.930;3.140;2023-12-20T00:54:25;11.03;;;2.83;;
18142;SDS011;9197;50.930;3.140;2023-12-20T00:56:53;10.40;;;2.63;;
18142;SDS011;9197;50.930;3.140;2023-12-20T00:59:20;13.23;;;3.50;;
18142;SDS011;9197;50.930;3.140;2023-12-20T01:01:47;11.17;;;3.43;;
18142;SDS011;9197;50.930;3.140;2023-12-20T01:04:15;11.60;;;3.70;;
18142;SDS011;9197;50.930;3.140;2023-12-20T01:06:42;12.60;;;3.53;;
18142;SDS011;9197;50.930;3.140;2023-12-20T01:09:09;17.83;;;3.90;;
18142;SDS011;9197;50.930;3.140;2023-12-20T01:11:36;15.70;;;3.77;;
18142;SDS011;9197;50.930;3.140;2023-12-20T01:14:05;10.83;;;4.03;;
18142;SDS011;9197;50.930;3.140;2023-12-20T01:16:32;12.33;;;3.53;;
18142;SDS011;9197;50.930;3.140;2023-12-20T01:18:59;7.30;;;3.33;;
18142;SDS011;9197;50.930;3.140;2023-12-20T01:21:26;16.80;;;3.83;;
18142;SDS011;9197;50.930;3.140;2023-12-20T01:23:52;10.60;;;3.27;;
18142;SDS011;9197;50.930;3.140;2023-12-20T01:26:19;11.40;;;3.27;;
18142;SDS011;9197;50.930;3.140;2023-12-20T01:28:47;9.40;;;4.13;;
18142;SDS011;9197;50.930;3.140;2023-12-20T01:31:15;18.67;;;3.10;;
18142;SDS011;9197;50.930;3.140;2023-12-20T01:33:42;6.07;;;2.40;;
18142;SDS011;9197;50.930;3.140;2023-12-20T01:36:10;13.70;;;3.00;;
18142;SDS011;9197;50.930;3.140;2023-12-20T01:38:37;19.13;;;2.93;;
18142;SDS011;9197;50.930;3.140;2023-12-20T01:41:04;13.97;;;2.77;;
18142;SDS011;9197;50.930;3.140;2023-12-20T01:43:31;9.73;;;2.47;;
18142;SDS011;9197;50.930;3.140;2023-12-20T01:45:59;9.30;;;2.90;;
18142;SDS011;9197;50.930;3.140;2023-12-20T01:48:27;8.70;;;2.90;;
18142;SDS011;9197;50.930;3.140;2023-12-20T01:50:56;9.83;;;2.90;;
18142;SDS011;9197;50.930;3.140;2023-12-20T01:53:24;10.43;;;2.80;;
18142;SDS011;9197;50.930;3.140;2023-12-20T01:55:52;6.53;;;2.47;;
18142;SDS011;9197;50.930;3.140;2023-12-20T01:58:19;11.03;;;2.70;;
18142;SDS011;9197;50.930;3.140;2023-12-20T02:00:46;5.73;;;2.10;;
18142;SDS011;9197;50.930;3.140;2023-12-20T02:03:14;5.10;;;2.50;;
18142;SDS011;9197;50.930;3.140;2023-12-20T02:05:43;14.57;;;3.20;;
18142;SDS011;9197;50.930;3.140;2023-12-20T02:08:11;8.30;;;2.63;;
18142;SDS011;9197;50.930;3.140;2023-12-20T02:10:37;11.90;;;3.10;;
18142;SDS011;9197;50.930;3.140;2023-12-20T02:13:05;10.33;;;2.70;;
18142;SDS011;9197;50.930;3.140;2023-12-20T02:15:32;9.37;;;3.10;;
18142;SDS011;9197;50.930;3.140;2023-12-20T02:18:02;8.10;;;2.60;;
18142;SDS011;9197;50.930;3.140;2023-12-20T02:20:29;7.47;;;2.83;;
18142;SDS011;9197;50.930;3.140;2023-12-20T02:22:57;11.93;;;3.10;;
18142;SDS011;9197;50.930;3.140;2023-12-20T02:25:24;12.50;;;3.07;;
18142;SDS011;9197;50.930;3.140;2023-12-20T02:27:52;9.17;;;3.33;;
18142;SDS011;9197;50.930;3.140;2023-12-20T02:30:19;9.40;;;2.70;;
18142;SDS011;9197;50.930;3.140;2023-12-20T02:32:46;13.50;;;3.27;;
18142;SDS011;9197;50.930;3.140;2023-12-20T02:35:14;10.40;;;2.77;;
18142;SDS011;9197;50.930;3.140;2023-12-20T02:37:41;10.60;;;3.60;;
18142;SDS011;9197;50.930;3.140;2023-12-20T02:40:10;10.43;;;2.90;;
18142;SDS011;9197;50.930;3.140;2023-12-20T02:42:37;12.80;;;3.17;;
18142;SDS011;9197;50.930;3.140;2023-12-20T02:45:04;9.77;;;2.70;;
18142;SDS011;9197;50.930;3.140;2023-12-20T02:47:32;10.17;;;2.77;;
18142;SDS011;9197;50.930;3.140;2023-12-20T02:49:59;11.17;;;2.87;;
18142;SDS011;9197;50.930;3.140;2023-12-20T02:52:27;7.67;;;2.63;;
18142;SDS011;9197;50.930;3.140;2023-12-20T02:54:54;11.77;;;3.17;;
18142;SDS011;9197;50.930;3.140;2023-12-20T02:57:23;11.77;;;3.50;;
18142;SDS011;9197;50.930;3.140;2023-12-20T02:59:50;11.93;;;3.53;;
18142;SDS011;9197;50.930;3.140;2023-12-20T03:02:17;11.17;;;2.30;;
18142;SDS011;9197;50.930;3.140;2023-12-20T03:04:44;13.43;;;3.07;;
18142;SDS011;9197;50.930;3.140;2023-12-20T03:07:11;6.90;;;3.20;;
18142;SDS011;9197;50.930;3.140;2023-12-20T03:09:38;14.23;;;3.10;;
18142;SDS011;9197;50.930;3.140;2023-12-20T03:12:06;6.87;;;2.90;;
18142;SDS011;9197;50.930;3.140;2023-12-20T03:14:34;11.70;;;3.03;;
18142;SDS011;9197;50.930;3.140;2023-12-20T03:17:01;11.30;;;3.03;;
18142;SDS011;9197;50.930;3.140;2023-12-20T03:19:29;9.67;;;2.30;;
18142;SDS011;9197;50.930;3.140;2023-12-20T03:21:56;5.67;;;2.57;;
18142;SDS011;9197;50.930;3.140;2023-12-20T03:24:26;8.17;;;2.73;;
18142;SDS011;9197;50.930;3.140;2023-12-20T03:26:53;6.43;;;2.90;;
18142;SDS011;9197;50.930;3.140;2023-12-20T03:29:20;7.70;;;2.70;;
18142;SDS011;9197;50.930;3.140;2023-12-20T03:31:48;9.97;;;3.20;;
18142;SDS011;9197;50.930;3.140;2023-12-20T03:34:16;18.17;;;3.80;;
18142;SDS011;9197;50.930;3.140;2023-12-20T03:36:43;21.67;;;3.23;;
18142;SDS011;9197;50.930;3.140;2023-12-20T03:39:12;9.60;;;3.30;;
18142;SDS011;9197;50.930;3.140;2023-12-20T03:41:40;19.47;;;3.33;;
18142;SDS011;9197;50.930;3.140;2023-12-20T03:44:07;21.03;;;3.43;;
18142;SDS011;9197;50.930;3.140;2023-12-20T03:46:34;12.30;;;2.93;;
18142;SDS011;9197;50.930;3.140;2023-12-20T03:49:03;15.47;;;3.10;;
18142;SDS011;9197;50.930;3.140;2023-12-20T03:51:30;15.23;;;3.43;;
18142;SDS011;9197;50.930;3.140;2023-12-20T03:53:57;11.33;;;2.80;;
18142;SDS011;9197;50.930;3.140;2023-12-20T03:56:25;13.53;;;4.00;;
18142;SDS011;9197;50.930;3.140;2023-12-20T03:58:52;10.07;;;3.20;;
18142;SDS011;9197;50.930;3.140;2023-12-20T04:01:19;19.73;;;3.33;;
18142;SDS011;9197;50.930;3.140;2023-12-20T04:03:46;18.47;;;2.93;;
18142;SDS011;9197;50.930;3.140;2023-12-20T04:06:17;16.47;;;3.27;;
18142;SDS011;9197;50.930;3.140;2023-12-20T04:08:44;11.07;;;3.03;;
18142;SDS011;9197;50.930;3.140;2023-12-20T04:11:11;18.37;;;3.83;;
18142;SDS011;9197;50.930;3.140;2023-12-20T04:13:39;7.03;;;2.10;;
18142;SDS011;9197;50.930;3.140;2023-12-20T04:16:06;15.70;;;2.70;;
18142;SDS011;9197;50.930;3.140;2023-12-20T04:18:33;14.37;;;3.13;;
18142;SDS011;9197;50.930;3.140;2023-12-20T04:21:01;6.07;;;2.07;;
18142;SDS011;9197;50.930;3.140;2023-12-20T04:23:30;18.07;;;2.70;;
18142;SDS011;9197;50.930;3.140;2023-12-20T04:25:57;14.83;;;2.70;;
18142;SDS011;9197;50.930;3.140;2023-12-20T04:28:24;15.20;;;2.43;;
18142;SDS011;9197;50.930;3.140;2023-12-20T04:30:51;11.17;;;2.70;;
18142;SDS011;9197;50.930;3.140;2023-12-20T04:33:18;13.40;;;2.30;;
18142;SDS011;9197;50.930;3.140;2023-12-20T04:35:45;9.80;;;2.50;;
18142;SDS011;9197;50.930;3.140;2023-12-20T04:38:13;4.90;;;2.57;;
18142;SDS011;9197;50.930;3.140;2023-12-20T04:40:41;15.27;;;2.63;;
18142;SDS011;9197;50.930;3.140;2023-12-20T04:43:08;15.03;;;2.53;;
18142;SDS011;9197;50.930;3.140;2023-12-20T04:45:35;7.57;;;2.33;;
18142;SDS011;9197;50.930;3.140;2023-12-20T04:48:03;7.43;;;2.60;;
18142;SDS011;9197;50.930;3.140;2023-12-20T04:50:30;13.97;;;3.20;;
18142;SDS011;9197;50.930;3.140;2023-12-20T04:52:58;13.70;;;3.13;;
18142;SDS011;9197;50.930;3.140;2023-12-20T04:55:25;7.40;;;2.50;;
18142;SDS011;9197;50.930;3.140;2023-12-20T04:57:54;11.60;;;2.00;;
18142;SDS011;9197;50.930;3.140;2023-12-20T05:00:21;12.60;;;3.43;;
18142;SDS011;9197;50.930;3.140;2023-12-20T05:02:48;15.30;;;3.03;;
18142;SDS011;9197;50.930;3.140;2023-12-20T05:05:16;12.50;;;2.60;;
18142;SDS011;9197;50.930;3.140;2023-12-20T05:07:43;9.07;;;2.23;;
18142;SDS011;9197;50.930;3.140;2023-12-20T05:10:10;12.17;;;2.73;;
18142;SDS011;9197;50.930;3.140;2023-12-20T05:12:37;19.70;;;2.90;;
18142;SDS011;9197;50.930;3.140;2023-12-20T05:15:06;11.83;;;2.27;;
18142;SDS011;9197;50.930;3.140;2023-12-20T05:17:34;12.20;;;2.70;;
18142;SDS011;9197;50.930;3.140;2023-12-20T05:20:01;14.40;;;2.10;;
18142;SDS011;9197;50.930;3.140;2023-12-20T05:22:28;10.20;;;2.57;;
18142;SDS011;9197;50.930;3.140;2023-12-20T05:24:55;12.77;;;2.40;;
18142;SDS011;9197;50.930;3.140;2023-12-20T05:27:23;10.33;;;2.97;;
18142;SDS011;9197;50.930;3.140;2023-12-20T05:29:50;10.63;;;2.20;;
18142;SDS011;9197;50.930;3.140;2023-12-20T05:32:18;11.90;;;3.03;;
18142;SDS011;9197;50.930;3.140;2023-12-20T05:34:45;12.87;;;2.57;;
18142;SDS011;9197;50.930;3.140;2023-12-20T05:37:13;13.63;;;2.57;;
18142;SDS011;9197;50.930;3.140;2023-12-20T05:39:40;11.27;;;3.13;;
18142;SDS011;9197;50.930;3.140;2023-12-20T05:42:07;13.00;;;2.53;;
18142;SDS011;9197;50.930;3.140;2023-12-20T05:44:34;9.87;;;2.17;;
18142;SDS011;9197;50.930;3.140;2023-12-20T05:47:02;12.80;;;2.60;;
18142;SDS011;9197;50.930;3.140;2023-12-20T05:49:31;8.67;;;2.60;;
18142;SDS011;9197;50.930;3.140;2023-12-20T05:51:58;9.47;;;2.73;;
18142;SDS011;9197;50.930;3.140;2023-12-20T05:54:25;8.87;;;2.60;;
18142;SDS011;9197;50.930;3.140;2023-12-20T05:56:52;11.00;;;2.53;;
18142;SDS011;9197;50.930;3.140;2023-12-20T05:59:19;11.47;;;2.27;;
18142;SDS011;9197;50.930;3.140;2023-12-20T06:01:46;13.47;;;2.53;;
18142;SDS011;9197;50.930;3.140;2023-12-20T06:04:14;9.60;;;2.30;;
18142;SDS011;9197;50.930;3.140;2023-12-20T06:06:42;19.93;;;2.50;;
18142;SDS011;9197;50.930;3.140;2023-12-20T06:09:10;15.30;;;2.67;;
18142;SDS011;9197;50.930;3.140;2023-12-20T06:11:37;12.13;;;2.53;;
18142;SDS011;9197;50.930;3.140;2023-12-20T06:14:04;19.13;;;2.70;;
18142;SDS011;9197;50.930;3.140;2023-12-20T06:16:31;6.70;;;2.40;;
18142;SDS011;9197;50.930;3.140;2023-12-20T06:18:59;16.13;;;2.67;;
18142;SDS011;9197;50.930;3.140;2023-12-20T06:21:26;10.60;;;2.90;;
18142;SDS011;9197;50.930;3.140;2023-12-20T06:23:54;18.10;;;2.40;;
18142;SDS011;9197;50.930;3.140;2023-12-20T06:26:21;12.37;;;2.33;;
18142;SDS011;9197;50.930;3.140;2023-12-20T06:28:49;12.50;;;3.77;;
18142;SDS011;9197;50.930;3.140;2023-12-20T06:31:16;13.30;;;3.27;;
18142;SDS011;9197;50.930;3.140;2023-12-20T06:33:43;11.67;;;2.40;;
18142;SDS011;9197;50.930;3.140;2023-12-20T06:36:11;17.80;;;3.53;;
18142;SDS011;9197;50.930;3.140;2023-12-20T06:38:38;11.90;;;2.47;;
18142;SDS011;9197;50.930;3.140;2023-12-20T06:41:08;5.63;;;2.03;;
18142;SDS011;9197;50.930;3.140;2023-12-20T06:43:35;12.40;;;1.90;;
18142;SDS011;9197;50.930;3.140;2023-12-20T06:46:03;9.73;;;2.77;;
18142;SDS011;9197;50.930;3.140;2023-12-20T06:48:30;11.47;;;3.17;;
18142;SDS011;9197;50.930;3.140;2023-12-20T06:50:57;11.07;;;2.10;;
18142;SDS011;9197;50.930;3.140;2023-12-20T06:53:25;8.90;;;2.40;;
18142;SDS011;9197;50.930;3.140;2023-12-20T06:55:52;5.37;;;1.97;;
18142;SDS011;9197;50.930;3.140;2023-12-20T06:58:22;8.70;;;2.70;;
18142;SDS011;9197;50.930;3.140;2023-12-20T07:00:50;11.93;;;2.77;;
18142;SDS011;9197;50.930;3.140;2023-12-20T07:03:17;6.00;;;1.97;;
18142;SDS011;9197;50.930;3.140;2023-12-20T07:05:46;10.07;;;3.20;;
18142;SDS011;9197;50.930;3.140;2023-12-20T07:08:13;16.03;;;3.63;;
18142;SDS011;9197;50.930;3.140;2023-12-20T07:10:40;17.23;;;2.67;;
18142;SDS011;9197;50.930;3.140;2023-12-20T07:13:08;11.40;;;2.83;;
18142;SDS011;9197;50.930;3.140;2023-12-20T07:15:39;12.93;;;2.57;;
18142;SDS011;9197;50.930;3.140;2023-12-20T07:18:07;9.53;;;2.57;;
18142;SDS011;9197;50.930;3.140;2023-12-20T07:20:34;8.90;;;2.50;;
18142;SDS011;9197;50.930;3.140;2023-12-20T07:23:01;7.33;;;2.17;;
18142;SDS011;9197;50.930;3.140;2023-12-20T07:25:28;18.80;;;3.17;;
18142;SDS011;9197;50.930;3.140;2023-12-20T07:27:57;15.70;;;3.00;;
18142;SDS011;9197;50.930;3.140;2023-12-20T07:30:24;9.87;;;2.90;;
18142;SDS011;9197;50.930;3.140;2023-12-20T07:32:53;10.23;;;2.83;;
18142;SDS011;9197;50.930;3.140;2023-12-20T07:35:20;14.63;;;3.20;;
18142;SDS011;9197;50.930;3.140;2023-12-20T07:37:47;13.30;;;3.70;;
18142;SDS011;9197;50.930;3.140;2023-12-20T07:40:14;11.93;;;3.40;;
18142;SDS011;9197;50.930;3.140;2023-12-20T07:42:42;7.07;;;2.17;;
18142;SDS011;9197;50.930;3.140;2023-12-20T07:45:09;14.10;;;3.00;;
18142;SDS011;9197;50.930;3.140;2023-12-20T07:47:37;5.60;;;2.27;;
18142;SDS011;9197;50.930;3.140;2023-12-20T07:50:07;6.47;;;2.40;;
18142;SDS011;9197;50.930;3.140;2023-12-20T07:52:35;14.53;;;2.80;;
18142;SDS011;9197;50.930;3.140;2023-12-20T07:55:02;14.97;;;2.87;;
18142;SDS011;9197;50.930;3.140;2023-12-20T07:57:29;8.53;;;2.60;;
18142;SDS011;9197;50.930;3.140;2023-12-20T07:59:56;19.83;;;3.93;;
18142;SDS011;9197;50.930;3.140;2023-12-20T08:02:24;6.43;;;2.53;;
18142;SDS011;9197;50.930;3.140;2023-12-20T08:04:51;11.10;;;2.90;;
18142;SDS011;9197;50.930;3.140;2023-12-20T08:07:19;17.90;;;2.93;;
18142;SDS011;9197;50.930;3.140;2023-12-20T08:09:47;13.13;;;3.00;;
18142;SDS011;9197;50.930;3.140;2023-12-20T08:12:14;10.23;;;4.07;;
18142;SDS011;9197;50.930;3.140;2023-12-20T08:14:42;11.77;;;3.30;;
18142;SDS011;9197;50.930;3.140;2023-12-20T08:17:09;10.07;;;3.10;;
18142;SDS011;9197;50.930;3.140;2023-12-20T08:19:37;12.63;;;2.30;;
18142;SDS011;9197;50.930;3.140;2023-12-20T08:22:04;12.30;;;2.40;;
18142;SDS011;9197;50.930;3.140;2023-12-20T08:24:33;10.60;;;3.57;;
18142;SDS011;9197;50.930;3.140;2023-12-20T08:27:00;13.07;;;3.27;;
18142;SDS011;9197;50.930;3.140;2023-12-20T08:29:27;9.90;;;2.50;;
18142;SDS011;9197;50.930;3.140;2023-12-20T08:31:55;14.70;;;2.43;;
18142;SDS011;9197;50.930;3.140;2023-12-20T08:34:22;9.03;;;2.67;;
18142;SDS011;9197;50.930;3.140;2023-12-20T08:36:50;9.10;;;2.43;;
18142;SDS011;9197;50.930;3.140;2023-12-20T08:39:17;12.23;;;3.83;;
18142;SDS011;9197;50.930;3.140;2023-12-20T08:41:45;11.90;;;3.33;;
18142;SDS011;9197;50.930;3.140;2023-12-20T08:44:13;9.10;;;2.50;;
18142;SDS011;9197;50.930;3.140;2023-12-20T08:46:40;8.60;;;2.73;;
18142;SDS011;9197;50.930;3.140;2023-12-20T08:49:07;9.17;;;3.40;;
18142;SDS011;9197;50.930;3.140;2023-12-20T08:51:35;11.10;;;3.20;;
18142;SDS011;9197;50.930;3.140;2023-12-20T08:54:05;10.43;;;3.27;;
18142;SDS011;9197;50.930;3.140;2023-12-20T08:56:33;8.90;;;2.50;;
18142;SDS011;9197;50.930;3.140;2023-12-20T08:59:02;7.00;;;2.40;;
18142;SDS011;9197;50.930;3.140;2023-12-20T09:01:29;10.20;;;2.40;;
18142;SDS011;9197;50.930;3.140;2023-12-20T09:03:56;9.43;;;2.50;;
18142;SDS011;9197;50.930;3.140;2023-12-20T09:06:23;10.77;;;2.10;;
18142;SDS011;9197;50.930;3.140;2023-12-20T09:08:51;8.17;;;2.20;;
18142;SDS011;9197;50.930;3.140;2023-12-20T09:11:18;10.13;;;1.77;;
18142;SDS011;9197;50.930;3.140;2023-12-20T09:13:45;8.33;;;2.37;;
18142;SDS011;9197;50.930;3.140;2023-12-20T09:16:14;9.40;;;2.77;;
18142;SDS011;9197;50.930;3.140;2023-12-20T09:18:41;12.40;;;2.60;;
18142;SDS011;9197;50.930;3.140;2023-12-20T09:21:08;7.30;;;2.90;;
18142;SDS011;9197;50.930;3.140;2023-12-20T09:23:35;11.87;;;2.50;;
18142;SDS011;9197;50.930;3.140;2023-12-20T09:26:03;12.70;;;2.60;;
18142;SDS011;9197;50.930;3.140;2023-12-20T09:28:31;7.77;;;2.77;;
18142;SDS011;9197;50.930;3.140;2023-12-20T09:31:02;12.37;;;2.27;;
18142;SDS011;9197;50.930;3.140;2023-12-20T09:33:30;13.40;;;2.20;;
18142;SDS011;9197;50.930;3.140;2023-12-20T09:35:58;8.63;;;2.20;;
18142;SDS011;9197;50.930;3.140;2023-12-20T09:38:25;12.00;;;2.63;;
18142;SDS011;9197;50.930;3.140;2023-12-20T09:40:52;10.90;;;2.37;;
18142;SDS011;9197;50.930;3.140;2023-12-20T09:43:20;7.20;;;2.30;;
18142;SDS011;9197;50.930;3.140;2023-12-20T09:45:53;13.07;;;3.17;;
18142;SDS011;9197;50.930;3.140;2023-12-20T09:48:20;11.93;;;3.27;;
18142;SDS011;9197;50.930;3.140;2023-12-20T09:50:49;6.07;;;2.17;;
18142;SDS011;9197;50.930;3.140;2023-12-20T09:53:16;12.77;;;3.20;;
18142;SDS011;9197;50.930;3.140;2023-12-20T09:55:44;13.10;;;2.93;;
18142;SDS011;9197;50.930;3.140;2023-12-20T09:58:12;8.87;;;2.27;;
18142;SDS011;9197;50.930;3.140;2023-12-20T10:00:39;11.43;;;3.23;;
18142;SDS011;9197;50.930;3.140;2023-12-20T10:03:06;13.93;;;2.40;;
18142;SDS011;9197;50.930;3.140;2023-12-20T10:05:33;17.13;;;3.13;;
18142;SDS011;9197;50.930;3.140;2023-12-20T10:08:02;15.43;;;2.63;;
18142;SDS011;9197;50.930;3.140;2023-12-20T10:10:30;8.53;;;2.53;;
18142;SDS011;9197;50.930;3.140;2023-12-20T10:13:03;9.80;;;2.23;;
18142;SDS011;9197;50.930;3.140;2023-12-20T10:15:32;10.33;;;2.57;;
18142;SDS011;9197;50.930;3.140;2023-12-20T10:17:59;10.43;;;3.73;;
18142;SDS011;9197;50.930;3.140;2023-12-20T10:20:26;10.97;;;2.37;;
18142;SDS011;9197;50.930;3.140;2023-12-20T10:22:54;8.30;;;2.50;;
18142;SDS011;9197;50.930;3.140;2023-12-20T10:25:23;7.83;;;2.43;;
18142;SDS011;9197;50.930;3.140;2023-12-20T10:27:51;8.23;;;2.00;;
18142;SDS011;9197;50.930;3.140;2023-12-20T10:30:35;5.97;;;2.33;;
18142;SDS011;9197;50.930;3.140;2023-12-20T10:33:02;8.60;;;2.00;;
18142;SDS011;9197;50.930;3.140;2023-12-20T10:35:29;8.03;;;2.30;;
18142;SDS011;9197;50.930;3.140;2023-12-20T10:37:57;10.70;;;2.67;;
18142;SDS011;9197;50.930;3.140;2023-12-20T10:40:26;7.37;;;2.23;;
18142;SDS011;9197;50.930;3.140;2023-12-20T10:42:54;8.57;;;2.23;;
18142;SDS011;9197;50.930;3.140;2023-12-20T10:45:22;10.57;;;2.37;;
18142;SDS011;9197;50.930;3.140;2023-12-20T10:47:50;9.57;;;1.90;;
18142;SDS011;9197;50.930;3.140;2023-12-20T10:50:18;5.03;;;1.57;;
18142;SDS011;9197;50.930;3.140;2023-12-20T10:52:46;10.90;;;2.47;;
18142;SDS011;9197;50.930;3.140;2023-12-20T10:55:13;6.03;;;1.70;;
18142;SDS011;9197;50.930;3.140;2023-12-20T10:57:42;10.83;;;2.70;;
18142;SDS011;9197;50.930;3.140;2023-12-20T11:00:16;10.10;;;2.73;;
18142;SDS011;9197;50.930;3.140;2023-12-20T11:02:44;8.07;;;2.43;;
18142;SDS011;9197;50.930;3.140;2023-12-20T11:05:15;10.97;;;2.33;;
18142;SDS011;9197;50.930;3.140;2023-12-20T11:07:47;9.67;;;2.83;;
18142;SDS011;9197;50.930;3.140;2023-12-20T11:10:16;14.40;;;2.60;;
18142;SDS011;9197;50.930;3.140;2023-12-20T11:12:47;8.70;;;3.20;;
18142;SDS011;9197;50.930;3.140;2023-12-20T11:15:15;11.00;;;2.40;;
18142;SDS011;9197;50.930;3.140;2023-12-20T11:17:44;10.00;;;3.80;;
18142;SDS011;9197;50.930;3.140;2023-12-20T11:20:12;10.90;;;2.57;;
18142;SDS011;9197;50.930;3.140;2023-12-20T11:22:39;6.07;;;2.20;;
18142;SDS011;9197;50.930;3.140;2023-12-20T11:25:07;7.83;;;2.20;;
18142;SDS011;9197;50.930;3.140;2023-12-20T11:27:35;5.90;;;2.30;;
18142;SDS011;9197;50.930;3.140;2023-12-20T11:30:05;9.83;;;3.23;;
18142;SDS011;9197;50.930;3.140;2023-12-20T11:32:34;5.67;;;2.03;;
18142;SDS011;9197;50.930;3.140;2023-12-20T11:35:16;10.60;;;1.90;;
18142;SDS011;9197;50.930;3.140;2023-12-20T11:37:43;14.23;;;2.73;;
18142;SDS011;9197;50.930;3.140;2023-12-20T11:40:12;6.17;;;2.07;;
18142;SDS011;9197;50.930;3.140;2023-12-20T11:42:42;7.17;;;2.63;;
18142;SDS011;9197;50.930;3.140;2023-12-20T11:45:11;9.23;;;2.00;;
18142;SDS011;9197;50.930;3.140;2023-12-20T11:47:40;9.97;;;2.80;;
18142;SDS011;9197;50.930;3.140;2023-12-20T11:50:07;9.73;;;2.53;;
18142;SDS011;9197;50.930;3.140;2023-12-20T11:52:37;5.83;;;2.63;;
18142;SDS011;9197;50.930;3.140;2023-12-20T11:55:04;11.57;;;2.80;;
18142;SDS011;9197;50.930;3.140;2023-12-20T11:57:32;10.17;;;2.53;;
18142;SDS011;9197;50.930;3.140;2023-12-20T11:59:59;10.60;;;2.43;;
18142;SDS011;9197;50.930;3.140;2023-12-20T12:02:28;14.80;;;2.63;;
18142;SDS011;9197;50.930;3.140;2023-12-20T12:04:55;7.20;;;2.43;;
18142;SDS011;9197;50.930;3.140;2023-12-20T12:07:23;10.57;;;2.50;;
18142;SDS011;9197;50.930;3.140;2023-12-20T12:09:50;14.80;;;3.10;;
18142;SDS011;9197;50.930;3.140;2023-12-20T12:12:18;10.73;;;2.53;;
18142;SDS011;9197;50.930;3.140;2023-12-20T12:14:46;10.07;;;2.83;;
18142;SDS011;9197;50.930;3.140;2023-12-20T12:17:13;10.17;;;2.37;;
18142;SDS011;9197;50.930;3.140;2023-12-20T12:19:42;9.70;;;3.60;;
18142;SDS011;9197;50.930;3.140;2023-12-20T12:22:10;11.07;;;3.63;;
18142;SDS011;9197;50.930;3.140;2023-12-20T12:24:38;8.30;;;2.87;;
18142;SDS011;9197;50.930;3.140;2023-12-20T12:27:06;7.83;;;1.80;;
18142;SDS011;9197;50.930;3.140;2023-12-20T12:29:33;11.37;;;2.67;;
18142;SDS011;9197;50.930;3.140;2023-12-20T12:32:00;5.43;;;2.27;;
18142;SDS011;9197;50.930;3.140;2023-12-20T12:34:28;8.07;;;2.80;;
18142;SDS011;9197;50.930;3.140;2023-12-20T12:36:56;9.20;;;2.57;;
18142;SDS011;9197;50.930;3.140;2023-12-20T12:39:24;6.47;;;2.07;;
18142;SDS011;9197;50.930;3.140;2023-12-20T12:41:51;20.00;;;3.90;;
18142;SDS011;9197;50.930;3.140;2023-12-20T12:44:18;12.57;;;3.33;;
18142;SDS011;9197;50.930;3.140;2023-12-20T12:46:48;13.70;;;2.30;;
18142;SDS011;9197;50.930;3.140;2023-12-20T12:49:16;12.63;;;2.37;;
18142;SDS011;9197;50.930;3.140;2023-12-20T12:51:43;11.03;;;1.53;;
18142;SDS011;9197;50.930;3.140;2023-12-20T12:54:12;5.27;;;1.73;;
18142;SDS011;9197;50.930;3.140;2023-12-20T12:56:41;9.70;;;1.77;;
18142;SDS011;9197;50.930;3.140;2023-12-20T12:59:08;7.13;;;2.17;;
18142;SDS011;9197;50.930;3.140;2023-12-20T13:01:36;12.73;;;2.17;;
18142;SDS011;9197;50.930;3.140;2023-12-20T13:04:03;6.93;;;2.37;;
18142;SDS011;9197;50.930;3.140;2023-12-20T13:06:35;10.23;;;2.13;;
18142;SDS011;9197;50.930;3.140;2023-12-20T13:09:02;8.40;;;2.20;;
18142;SDS011;9197;50.930;3.140;2023-12-20T13:11:32;8.13;;;1.83;;
18142;SDS011;9197;50.930;3.140;2023-12-20T13:13:59;8.97;;;2.43;;
18142;SDS011;9197;50.930;3.140;2023-12-20T13:16:28;6.53;;;2.53;;
18142;SDS011;9197;50.930;3.140;2023-12-20T13:18:56;8.33;;;2.20;;
18142;SDS011;9197;50.930;3.140;2023-12-20T13:21:25;15.10;;;3.77;;
18142;SDS011;9197;50.930;3.140;2023-12-20T13:23:52;11.70;;;2.43;;
18142;SDS011;9197;50.930;3.140;2023-12-20T13:26:19;13.10;;;3.27;;
18142;SDS011;9197;50.930;3.140;2023-12-20T13:28:48;9.00;;;2.20;;
18142;SDS011;9197;50.930;3.140;2023-12-20T13:31:15;8.80;;;3.23;;
18142;SDS011;9197;50.930;3.140;2023-12-20T13:33:42;6.33;;;2.10;;
18142;SDS011;9197;50.930;3.140;2023-12-20T13:36:09;7.00;;;2.20;;
18142;SDS011;9197;50.930;3.140;2023-12-20T13:38:36;8.83;;;2.23;;
18142;SDS011;9197;50.930;3.140;2023-12-20T13:41:03;6.40;;;2.17;;
18142;SDS011;9197;50.930;3.140;2023-12-20T13:43:31;8.43;;;2.30;;
18142;SDS011;9197;50.930;3.140;2023-12-20T13:46:00;10.37;;;2.33;;
18142;SDS011;9197;50.930;3.140;2023-12-20T13:48:27;9.23;;;2.23;;
18142;SDS011;9197;50.930;3.140;2023-12-20T13:50:54;5.43;;;2.07;;
18142;SDS011;9197;50.930;3.140;2023-12-20T13:53:22;10.60;;;1.80;;
18142;SDS011;9197;50.930;3.140;2023-12-20T13:55:49;5.07;;;1.57;;
18142;SDS011;9197;50.930;3.140;2023-12-20T13:58:16;7.70;;;1.80;;
18142;SDS011;9197;50.930;3.140;2023-12-20T14:00:45;8.57;;;2.13;;
18142;SDS011;9197;50.930;3.140;2023-12-20T14:03:14;8.50;;;2.07;;
18142;SDS011;9197;50.930;3.140;2023-12-20T14:05:41;14.63;;;2.33;;
18142;SDS011;9197;50.930;3.140;2023-12-20T14:08:08;10.00;;;2.43;;
18142;SDS011;9197;50.930;3.140;2023-12-20T14:10:36;8.70;;;2.30;;
18142;SDS011;9197;50.930;3.140;2023-12-20T14:13:03;9.60;;;2.37;;
18142;SDS011;9197;50.930;3.140;2023-12-20T14:15:31;9.27;;;2.57;;
18142;SDS011;9197;50.930;3.140;2023-12-20T14:18:02;8.10;;;2.43;;
18142;SDS011;9197;50.930;3.140;2023-12-20T14:20:31;7.00;;;2.10;;
18142;SDS011;9197;50.930;3.140;2023-12-20T14:22:59;11.30;;;2.30;;
18142;SDS011;9197;50.930;3.140;2023-12-20T14:25:26;10.27;;;2.07;;
18142;SDS011;9197;50.930;3.140;2023-12-20T14:27:54;7.83;;;2.23;;
18142;SDS011;9197;50.930;3.140;2023-12-20T14:30:21;4.50;;;1.37;;
18142;SDS011;9197;50.930;3.140;2023-12-20T14:32:48;8.87;;;2.00;;
18142;SDS011;9197;50.930;3.140;2023-12-20T14:35:15;8.23;;;2.27;;
18142;SDS011;9197;50.930;3.140;2023-12-20T14:37:44;4.43;;;1.73;;
18142;SDS011;9197;50.930;3.140;2023-12-20T14:40:11;9.77;;;2.67;;
18142;SDS011;9197;50.930;3.140;2023-12-20T14:42:41;15.20;;;2.83;;
18142;SDS011;9197;50.930;3.140;2023-12-20T14:45:08;13.10;;;2.40;;
18142;SDS011;9197;50.930;3.140;2023-12-20T14:47:36;9.60;;;2.10;;
18142;SDS011;9197;50.930;3.140;2023-12-20T14:50:03;9.17;;;2.30;;
18142;SDS011;9197;50.930;3.140;2023-12-20T14:52:31;7.43;;;1.97;;
18142;SDS011;9197;50.930;3.140;2023-12-20T14:55:00;8.90;;;2.17;;